sensor_id;sensor_type;location;lat;lon;timestamp;pressure;altitude;pressure_sealevel;temperature;humidity
30338;BME280;17143;51.888;5.408;2023-04-06T00:10:02;101655.84;;;6.84;59.78
30338;BME280;17143;51.888;5.408;2023-04-06T00:25:06;101645.00;;;6.67;60.48
30338;BME280;17143;51.888;5.408;2023-04-06T00:40:10;101636.25;;;6.55;60.89
30338;BME280;17143;51.888;5.408;2023-04-06T00:55:12;101614.03;;;6.37;61.60
30338;BME280;17143;51.888;5.408;2023-04-06T01:10:24;101603.16;;;6.31;62.14
30338;BME280;17143;51.888;5.408;2023-04-06T01:25:27;101599.81;;;6.32;62.31
30338;BME280;17143;51.888;5.408;2023-04-06T01:40:43;101575.72;;;6.33;62.87
30338;BME280;17143;51.888;5.408;2023-04-06T01:55:46;101560.47;;;6.36;62.75
30338;BME280;17143;51.888;5.408;2023-04-06T02:11:01;101545.84;;;6.37;62.77
30338;BME280;17143;51.888;5.408;2023-04-06T02:26:13;101526.31;;;6.40;63.05
30338;BME280;17143;51.888;5.408;2023-04-06T02:41:15;101516.22;;;6.43;63.48
30338;BME280;17143;51.888;5.408;2023-04-06T02:56:18;101489.69;;;6.46;63.86
30338;BME280;17143;51.888;5.408;2023-04-06T03:11:24;101476.59;;;6.44;64.71
30338;BME280;17143;51.888;5.408;2023-04-06T03:26:28;101480.84;;;6.44;65.54
30338;BME280;17143;51.888;5.408;2023-04-06T03:41:30;101464.88;;;6.38;66.20
30338;BME280;17143;51.888;5.408;2023-04-06T03:56:38;101458.03;;;6.28;66.78
30338;BME280;17143;51.888;5.408;2023-04-06T04:11:40;101456.91;;;6.25;67.12
30338;BME280;17143;51.888;5.408;2023-04-06T04:26:42;101461.03;;;6.23;67.77
30338;BME280;17143;51.888;5.408;2023-04-06T04:41:44;101457.31;;;6.19;68.03
30338;BME280;17143;51.888;5.408;2023-04-06T04:56:48;101450.81;;;6.24;68.16
30338;BME280;17143;51.888;5.408;2023-04-06T05:12:04;101441.19;;;6.33;68.70
30338;BME280;17143;51.888;5.408;2023-04-06T05:27:12;101432.97;;;6.49;69.31
30338;BME280;17143;51.888;5.408;2023-04-06T05:42:16;101421.59;;;6.68;69.05
30338;BME280;17143;51.888;5.408;2023-04-06T05:57:27;101427.97;;;6.84;69.63
30338;BME280;17143;51.888;5.408;2023-04-06T06:12:30;101424.84;;;6.88;70.11
30338;BME280;17143;51.888;5.408;2023-04-06T06:27:32;101423.75;;;6.96;71.08
30338;BME280;17143;51.888;5.408;2023-04-06T06:42:35;101448.44;;;7.47;70.74
30338;BME280;17143;51.888;5.408;2023-04-06T06:57:55;101435.63;;;7.95;68.97
30338;BME280;17143;51.888;5.408;2023-04-06T07:12:58;101414.44;;;7.89;67.93
30338;BME280;17143;51.888;5.408;2023-04-06T07:28:01;101424.16;;;7.91;69.19
30338;BME280;17143;51.888;5.408;2023-04-06T07:43:03;101412.84;;;8.03;69.94
30338;BME280;17143;51.888;5.408;2023-04-06T07:58:06;101405.19;;;8.39;68.97
30338;BME280;17143;51.888;5.408;2023-04-06T08:13:08;101411.19;;;8.87;68.24
30338;BME280;17143;51.888;5.408;2023-04-06T08:28:10;101410.94;;;9.21;68.14
30338;BME280;17143;51.888;5.408;2023-04-06T08:43:14;101417.59;;;9.42;68.29
30338;BME280;17143;51.888;5.408;2023-04-06T08:58:16;101410.34;;;9.75;67.71
30338;BME280;17143;51.888;5.408;2023-04-06T09:13:18;101418.44;;;10.06;67.30
30338;BME280;17143;51.888;5.408;2023-04-06T09:28:20;101419.84;;;10.27;66.87
30338;BME280;17143;51.888;5.408;2023-04-06T09:43:26;101404.81;;;10.50;66.95
30338;BME280;17143;51.888;5.408;2023-04-06T09:58:33;101414.63;;;11.09;68.98
30338;BME280;17143;51.888;5.408;2023-04-06T10:13:37;101411.16;;;11.38;71.60
30338;BME280;17143;51.888;5.408;2023-04-06T10:28:41;101423.06;;;11.05;75.55
30338;BME280;17143;51.888;5.408;2023-04-06T10:43:44;101421.00;;;10.72;81.96
30338;BME280;17143;51.888;5.408;2023-04-06T10:58:46;101414.78;;;10.57;87.44
30338;BME280;17143;51.888;5.408;2023-04-06T11:13:49;101408.06;;;10.32;91.08
30338;BME280;17143;51.888;5.408;2023-04-06T11:28:52;101389.31;;;10.25;94.46
30338;BME280;17143;51.888;5.408;2023-04-06T11:43:55;101367.16;;;10.45;96.88
30338;BME280;17143;51.888;5.408;2023-04-06T11:58:58;101352.94;;;10.39;97.06
30338;BME280;17143;51.888;5.408;2023-04-06T12:14:00;101349.16;;;10.62;99.08
30338;BME280;17143;51.888;5.408;2023-04-06T12:29:02;101339.19;;;10.70;97.90
30338;BME280;17143;51.888;5.408;2023-04-06T12:44:05;101322.69;;;10.42;99.75
30338;BME280;17143;51.888;5.408;2023-04-06T12:59:07;101319.13;;;10.26;100.00
30338;BME280;17143;51.888;5.408;2023-04-06T13:14:09;101302.50;;;10.11;100.00
30338;BME280;17143;51.888;5.408;2023-04-06T13:29:11;101291.63;;;9.91;100.00
30338;BME280;17143;51.888;5.408;2023-04-06T13:44:13;101280.50;;;9.93;100.00
30338;BME280;17143;51.888;5.408;2023-04-06T13:59:15;101271.28;;;9.98;100.00
30338;BME280;17143;51.888;5.408;2023-04-06T14:14:17;101251.72;;;9.77;100.00
30338;BME280;17143;51.888;5.408;2023-04-06T14:29:19;101254.34;;;9.64;100.00
30338;BME280;17143;51.888;5.408;2023-04-06T14:44:22;101245.84;;;9.53;100.00
30338;BME280;17143;51.888;5.408;2023-04-06T14:59:24;101226.56;;;9.50;100.00
30338;BME280;17143;51.888;5.408;2023-04-06T15:14:26;101220.69;;;9.39;100.00
30338;BME280;17143;51.888;5.408;2023-04-06T15:29:30;101214.16;;;9.33;100.00
30338;BME280;17143;51.888;5.408;2023-04-06T15:44:32;101203.00;;;9.34;100.00
30338;BME280;17143;51.888;5.408;2023-04-06T15:59:34;101189.00;;;9.32;100.00
30338;BME280;17143;51.888;5.408;2023-04-06T16:14:35;101188.78;;;9.29;100.00
30338;BME280;17143;51.888;5.408;2023-04-06T16:29:37;101186.00;;;9.26;100.00
30338;BME280;17143;51.888;5.408;2023-04-06T16:44:40;101173.91;;;9.26;100.00
30338;BME280;17143;51.888;5.408;2023-04-06T16:59:42;101168.78;;;9.28;100.00
30338;BME280;17143;51.888;5.408;2023-04-06T17:14:44;101166.38;;;9.31;100.00
30338;BME280;17143;51.888;5.408;2023-04-06T17:29:46;101168.78;;;9.28;100.00
30338;BME280;17143;51.888;5.408;2023-04-06T17:44:48;101156.91;;;9.31;100.00
30338;BME280;17143;51.888;5.408;2023-04-06T17:59:50;101168.78;;;9.28;100.00
30338;BME280;17143;51.888;5.408;2023-04-06T18:14:52;101178.97;;;9.25;100.00
30338;BME280;17143;51.888;5.408;2023-04-06T18:29:54;101178.97;;;9.25;100.00
30338;BME280;17143;51.888;5.408;2023-04-06T18:44:56;101175.81;;;9.29;100.00
30338;BME280;17143;51.888;5.408;2023-04-06T18:59:58;101177.56;;;9.30;100.00
30338;BME280;17143;51.888;5.408;2023-04-06T19:15:02;101176.78;;;9.31;100.00
30338;BME280;17143;51.888;5.408;2023-04-06T19:30:05;101184.66;;;9.32;100.00
30338;BME280;17143;51.888;5.408;2023-04-06T19:45:08;101189.69;;;9.42;100.00
30338;BME280;17143;51.888;5.408;2023-04-06T20:00:11;101196.16;;;9.49;100.00
30338;BME280;17143;51.888;5.408;2023-04-06T20:15:14;101195.16;;;9.60;100.00
30338;BME280;17143;51.888;5.408;2023-04-06T20:30:16;101208.63;;;9.67;100.00
30338;BME280;17143;51.888;5.408;2023-04-06T20:45:18;101202.50;;;9.67;100.00
30338;BME280;17143;51.888;5.408;2023-04-06T21:00:21;101203.16;;;9.63;100.00
30338;BME280;17143;51.888;5.408;2023-04-06T21:15:23;101202.31;;;9.64;100.00
30338;BME280;17143;51.888;5.408;2023-04-06T21:30:25;101197.31;;;9.67;100.00
30338;BME280;17143;51.888;5.408;2023-04-06T21:45:27;101216.34;;;9.66;100.00
30338;BME280;17143;51.888;5.408;2023-04-06T22:00:29;101221.91;;;9.72;100.00
30338;BME280;17143;51.888;5.408;2023-04-06T22:15:31;101235.75;;;9.71;100.00
30338;BME280;17143;51.888;5.408;2023-04-06T22:30:33;101235.75;;;9.71;100.00
30338;BME280;17143;51.888;5.408;2023-04-06T22:45:35;101248.44;;;9.66;100.00
30338;BME280;17143;51.888;5.408;2023-04-06T23:00:37;101256.94;;;9.64;100.00
30338;BME280;17143;51.888;5.408;2023-04-06T23:15:39;101262.97;;;9.63;100.00
30338;BME280;17143;51.888;5.408;2023-04-06T23:30:41;101267.06;;;9.59;100.00
30338;BME280;17143;51.888;5.408;2023-04-06T23:45:43;101278.97;;;9.56;100.00
